sensor_id;sensor_type;location;lat;lon;timestamp;temperature;humidity
19734;DHT22;10018;51.230;7.860;2022-09-13T00:01:30;14.00;99.90
19734;DHT22;10018;51.230;7.860;2022-09-13T00:03:56;14.00;99.90
19734;DHT22;10018;51.230;7.860;2022-09-13T00:06:22;14.00;99.90
19734;DHT22;10018;51.230;7.860;2022-09-13T00:08:48;13.90;99.90
19734;DHT22;10018;51.230;7.860;2022-09-13T00:11:19;13.90;99.90
19734;DHT22;10018;51.230;7.860;2022-09-13T00:13:45;13.90;99.90
19734;DHT22;10018;51.230;7.860;2022-09-13T00:16:16;13.90;99.90
19734;DHT22;10018;51.230;7.860;2022-09-13T00:18:42;13.90;99.90
19734;DHT22;10018;51.230;7.860;2022-09-13T00:21:14;13.90;99.90
19734;DHT22;10018;51.230;7.860;2022-09-13T00:23:43;13.80;99.90
19734;DHT22;10018;51.230;7.860;2022-09-13T00:26:14;13.80;99.90
19734;DHT22;10018;51.230;7.860;2022-09-13T00:28:40;13.80;99.90
19734;DHT22;10018;51.230;7.860;2022-09-13T00:31:07;13.80;99.90
19734;DHT22;10018;51.230;7.860;2022-09-13T00:33:34;13.70;99.90
19734;DHT22;10018;51.230;7.860;2022-09-13T00:36:07;13.70;99.90
19734;DHT22;10018;51.230;7.860;2022-09-13T00:38:37;13.70;99.90
19734;DHT22;10018;51.230;7.860;2022-09-13T00:41:05;13.70;99.90
19734;DHT22;10018;51.230;7.860;2022-09-13T00:43:45;13.70;99.90
19734;DHT22;10018;51.230;7.860;2022-09-13T00:46:38;13.70;99.90
19734;DHT22;10018;51.230;7.860;2022-09-13T00:51:47;13.70;99.90
19734;DHT22;10018;51.230;7.860;2022-09-13T00:54:15;13.70;99.90
19734;DHT22;10018;51.230;7.860;2022-09-13T00:56:46;13.80;99.90
19734;DHT22;10018;51.230;7.860;2022-09-13T00:59:16;13.70;99.90
19734;DHT22;10018;51.230;7.860;2022-09-13T01:01:48;13.70;99.90
19734;DHT22;10018;51.230;7.860;2022-09-13T01:04:16;13.70;99.90
19734;DHT22;10018;51.230;7.860;2022-09-13T01:06:45;13.70;99.90
19734;DHT22;10018;51.230;7.860;2022-09-13T01:09:11;13.70;99.90
19734;DHT22;10018;51.230;7.860;2022-09-13T01:11:47;13.80;99.90
19734;DHT22;10018;51.230;7.860;2022-09-13T01:14:16;13.80;99.90
19734;DHT22;10018;51.230;7.860;2022-09-13T01:16:42;13.80;99.90
19734;DHT22;10018;51.230;7.860;2022-09-13T01:19:07;13.80;99.90
19734;DHT22;10018;51.230;7.860;2022-09-13T01:38:10;13.90;99.90
19734;DHT22;10018;51.230;7.860;2022-09-13T01:49:32;13.90;99.90
19734;DHT22;10018;51.230;7.860;2022-09-13T01:54:47;13.80;99.90
19734;DHT22;10018;51.230;7.860;2022-09-13T01:57:35;13.80;99.90
19734;DHT22;10018;51.230;7.860;2022-09-13T02:00:04;13.90;99.90
19734;DHT22;10018;51.230;7.860;2022-09-13T02:02:38;13.80;99.90
19734;DHT22;10018;51.230;7.860;2022-09-13T02:05:26;13.90;99.90
19734;DHT22;10018;51.230;7.860;2022-09-13T02:07:58;13.90;99.90
19734;DHT22;10018;51.230;7.860;2022-09-13T02:10:46;13.90;99.90
19734;DHT22;10018;51.230;7.860;2022-09-13T02:13:16;13.90;99.90
19734;DHT22;10018;51.230;7.860;2022-09-13T02:15:48;13.80;99.90
19734;DHT22;10018;51.230;7.860;2022-09-13T02:18:27;13.80;99.90
19734;DHT22;10018;51.230;7.860;2022-09-13T02:20:59;13.80;99.90
19734;DHT22;10018;51.230;7.860;2022-09-13T02:23:33;13.80;99.90
19734;DHT22;10018;51.230;7.860;2022-09-13T02:26:02;13.90;99.90
19734;DHT22;10018;51.230;7.860;2022-09-13T02:28:37;13.80;99.90
19734;DHT22;10018;51.230;7.860;2022-09-13T02:31:07;13.90;99.90
19734;DHT22;10018;51.230;7.860;2022-09-13T02:33:47;13.90;99.90
19734;DHT22;10018;51.230;7.860;2022-09-13T02:36:21;13.90;99.90
19734;DHT22;10018;51.230;7.860;2022-09-13T02:39:08;13.90;99.90
19734;DHT22;10018;51.230;7.860;2022-09-13T02:41:55;13.90;99.90
19734;DHT22;10018;51.230;7.860;2022-09-13T02:44:40;13.90;99.90
19734;DHT22;10018;51.230;7.860;2022-09-13T02:50:17;13.90;99.90
19734;DHT22;10018;51.230;7.860;2022-09-13T02:55:54;13.90;99.90
19734;DHT22;10018;51.230;7.860;2022-09-13T02:58:31;13.90;99.90
19734;DHT22;10018;51.230;7.860;2022-09-13T03:00:59;13.90;99.90
19734;DHT22;10018;51.230;7.860;2022-09-13T03:03:25;13.90;99.90
19734;DHT22;10018;51.230;7.860;2022-09-13T03:05:52;13.90;99.90
19734;DHT22;10018;51.230;7.860;2022-09-13T03:08:18;14.00;99.90
19734;DHT22;10018;51.230;7.860;2022-09-13T03:11:04;14.00;99.90
19734;DHT22;10018;51.230;7.860;2022-09-13T03:25:03;13.90;99.90
19734;DHT22;10018;51.230;7.860;2022-09-13T03:27:55;14.00;99.90
19734;DHT22;10018;51.230;7.860;2022-09-13T03:30:26;14.00;99.90
19734;DHT22;10018;51.230;7.860;2022-09-13T03:33:19;14.00;99.90
19734;DHT22;10018;51.230;7.860;2022-09-13T03:36:03;14.00;99.90
19734;DHT22;10018;51.230;7.860;2022-09-13T03:38:36;14.00;99.90
19734;DHT22;10018;51.230;7.860;2022-09-13T03:41:09;14.00;99.90
19734;DHT22;10018;51.230;7.860;2022-09-13T03:43:45;14.10;99.90
19734;DHT22;10018;51.230;7.860;2022-09-13T03:46:35;14.00;99.90
19734;DHT22;10018;51.230;7.860;2022-09-13T03:49:08;14.00;99.90
19734;DHT22;10018;51.230;7.860;2022-09-13T03:51:34;14.00;99.90
19734;DHT22;10018;51.230;7.860;2022-09-13T03:54:04;14.10;99.90
19734;DHT22;10018;51.230;7.860;2022-09-13T03:56:30;14.00;99.90
19734;DHT22;10018;51.230;7.860;2022-09-13T03:58:55;14.00;99.90
19734;DHT22;10018;51.230;7.860;2022-09-13T04:01:22;14.10;99.90
19734;DHT22;10018;51.230;7.860;2022-09-13T04:03:49;14.10;99.90
19734;DHT22;10018;51.230;7.860;2022-09-13T04:06:15;14.10;99.90
19734;DHT22;10018;51.230;7.860;2022-09-13T04:08:40;14.10;99.90
19734;DHT22;10018;51.230;7.860;2022-09-13T04:11:06;14.10;99.90
19734;DHT22;10018;51.230;7.860;2022-09-13T04:13:33;14.10;99.90
19734;DHT22;10018;51.230;7.860;2022-09-13T04:16:04;14.10;99.90
19734;DHT22;10018;51.230;7.860;2022-09-13T04:18:30;14.10;99.90
19734;DHT22;10018;51.230;7.860;2022-09-13T04:20:57;14.20;99.90
19734;DHT22;10018;51.230;7.860;2022-09-13T04:23:24;14.10;99.90
19734;DHT22;10018;51.230;7.860;2022-09-13T04:25:50;14.20;99.90
19734;DHT22;10018;51.230;7.860;2022-09-13T04:28:17;14.20;99.90
19734;DHT22;10018;51.230;7.860;2022-09-13T04:30:44;14.20;99.90
19734;DHT22;10018;51.230;7.860;2022-09-13T04:33:09;14.20;99.90
19734;DHT22;10018;51.230;7.860;2022-09-13T04:35:35;14.20;99.90
19734;DHT22;10018;51.230;7.860;2022-09-13T04:38:01;14.10;99.90
19734;DHT22;10018;51.230;7.860;2022-09-13T04:40:26;14.20;99.90
19734;DHT22;10018;51.230;7.860;2022-09-13T04:42:52;14.20;99.90
19734;DHT22;10018;51.230;7.860;2022-09-13T04:45:17;14.10;99.90
19734;DHT22;10018;51.230;7.860;2022-09-13T04:47:43;14.10;99.90
19734;DHT22;10018;51.230;7.860;2022-09-13T04:50:08;14.10;99.90
19734;DHT22;10018;51.230;7.860;2022-09-13T04:52:34;14.00;99.90
19734;DHT22;10018;51.230;7.860;2022-09-13T04:55:00;14.10;99.90
19734;DHT22;10018;51.230;7.860;2022-09-13T04:57:29;14.10;99.90
19734;DHT22;10018;51.230;7.860;2022-09-13T04:59:54;14.00;99.90
19734;DHT22;10018;51.230;7.860;2022-09-13T05:02:20;14.00;99.90
19734;DHT22;10018;51.230;7.860;2022-09-13T05:04:46;13.90;99.90
19734;DHT22;10018;51.230;7.860;2022-09-13T05:07:11;13.90;99.90
19734;DHT22;10018;51.230;7.860;2022-09-13T05:09:37;14.00;99.90
19734;DHT22;10018;51.230;7.860;2022-09-13T05:12:03;14.00;99.90
19734;DHT22;10018;51.230;7.860;2022-09-13T05:14:28;14.00;99.90
19734;DHT22;10018;51.230;7.860;2022-09-13T05:16:54;14.00;99.90
19734;DHT22;10018;51.230;7.860;2022-09-13T05:19:19;14.00;99.90
19734;DHT22;10018;51.230;7.860;2022-09-13T05:21:45;14.00;99.90
19734;DHT22;10018;51.230;7.860;2022-09-13T05:24:10;14.00;99.90
19734;DHT22;10018;51.230;7.860;2022-09-13T05:26:36;14.10;99.90
19734;DHT22;10018;51.230;7.860;2022-09-13T05:29:03;14.00;99.90
19734;DHT22;10018;51.230;7.860;2022-09-13T05:31:34;14.10;99.90
19734;DHT22;10018;51.230;7.860;2022-09-13T05:34:03;14.00;99.90
19734;DHT22;10018;51.230;7.860;2022-09-13T05:36:30;14.00;99.90
19734;DHT22;10018;51.230;7.860;2022-09-13T05:38:56;14.10;99.90
19734;DHT22;10018;51.230;7.860;2022-09-13T05:41:21;14.00;99.90
19734;DHT22;10018;51.230;7.860;2022-09-13T05:43:47;14.00;99.90
19734;DHT22;10018;51.230;7.860;2022-09-13T05:46:15;14.00;99.90
19734;DHT22;10018;51.230;7.860;2022-09-13T05:48:41;14.00;99.90
19734;DHT22;10018;51.230;7.860;2022-09-13T05:51:11;14.10;99.90
19734;DHT22;10018;51.230;7.860;2022-09-13T05:53:38;14.20;99.90
19734;DHT22;10018;51.230;7.860;2022-09-13T05:56:05;14.30;99.90
19734;DHT22;10018;51.230;7.860;2022-09-13T05:58:31;14.30;99.90
19734;DHT22;10018;51.230;7.860;2022-09-13T06:00:57;14.30;99.90
19734;DHT22;10018;51.230;7.860;2022-09-13T06:03:23;14.30;99.90
19734;DHT22;10018;51.230;7.860;2022-09-13T06:05:48;14.30;99.90
19734;DHT22;10018;51.230;7.860;2022-09-13T06:08:14;14.30;99.90
19734;DHT22;10018;51.230;7.860;2022-09-13T06:10:40;14.40;99.90
19734;DHT22;10018;51.230;7.860;2022-09-13T06:13:05;14.40;99.90
19734;DHT22;10018;51.230;7.860;2022-09-13T06:15:31;14.50;99.90
19734;DHT22;10018;51.230;7.860;2022-09-13T06:17:56;14.50;99.90
19734;DHT22;10018;51.230;7.860;2022-09-13T06:20:22;14.50;99.90
19734;DHT22;10018;51.230;7.860;2022-09-13T06:22:47;14.50;99.90
19734;DHT22;10018;51.230;7.860;2022-09-13T06:25:13;14.50;99.90
19734;DHT22;10018;51.230;7.860;2022-09-13T06:27:39;14.50;99.90
19734;DHT22;10018;51.230;7.860;2022-09-13T06:30:05;14.60;99.90
19734;DHT22;10018;51.230;7.860;2022-09-13T06:32:33;14.60;99.90
19734;DHT22;10018;51.230;7.860;2022-09-13T06:34:59;14.70;99.90
19734;DHT22;10018;51.230;7.860;2022-09-13T06:37:25;14.80;99.90
19734;DHT22;10018;51.230;7.860;2022-09-13T06:39:50;14.80;99.90
19734;DHT22;10018;51.230;7.860;2022-09-13T06:42:16;14.90;99.90
19734;DHT22;10018;51.230;7.860;2022-09-13T06:44:41;14.90;99.90
19734;DHT22;10018;51.230;7.860;2022-09-13T06:47:07;15.00;99.90
19734;DHT22;10018;51.230;7.860;2022-09-13T06:49:33;15.10;99.90
19734;DHT22;10018;51.230;7.860;2022-09-13T06:51:58;15.20;99.90
19734;DHT22;10018;51.230;7.860;2022-09-13T06:54:24;15.30;99.90
19734;DHT22;10018;51.230;7.860;2022-09-13T06:56:49;15.40;99.90
19734;DHT22;10018;51.230;7.860;2022-09-13T06:59:15;15.50;99.90
19734;DHT22;10018;51.230;7.860;2022-09-13T07:01:42;15.50;99.90
19734;DHT22;10018;51.230;7.860;2022-09-13T07:04:14;15.60;99.90
19734;DHT22;10018;51.230;7.860;2022-09-13T07:06:45;15.60;99.90
19734;DHT22;10018;51.230;7.860;2022-09-13T07:09:14;15.70;99.90
19734;DHT22;10018;51.230;7.860;2022-09-13T07:11:42;15.70;99.90
19734;DHT22;10018;51.230;7.860;2022-09-13T07:14:15;15.80;99.90
19734;DHT22;10018;51.230;7.860;2022-09-13T07:16:41;15.90;99.90
19734;DHT22;10018;51.230;7.860;2022-09-13T07:19:15;16.00;99.90
19734;DHT22;10018;51.230;7.860;2022-09-13T07:21:41;16.00;99.90
19734;DHT22;10018;51.230;7.860;2022-09-13T07:24:08;16.10;99.90
19734;DHT22;10018;51.230;7.860;2022-09-13T07:26:33;16.10;99.90
19734;DHT22;10018;51.230;7.860;2022-09-13T07:29:03;16.30;99.90
19734;DHT22;10018;51.230;7.860;2022-09-13T07:31:34;16.30;99.90
19734;DHT22;10018;51.230;7.860;2022-09-13T07:34:03;16.30;99.90
19734;DHT22;10018;51.230;7.860;2022-09-13T07:36:30;16.50;99.90
19734;DHT22;10018;51.230;7.860;2022-09-13T07:38:57;16.60;99.90
19734;DHT22;10018;51.230;7.860;2022-09-13T07:41:24;16.80;99.90
19734;DHT22;10018;51.230;7.860;2022-09-13T07:43:50;17.00;99.90
19734;DHT22;10018;51.230;7.860;2022-09-13T07:46:18;17.10;99.90
19734;DHT22;10018;51.230;7.860;2022-09-13T07:48:46;17.30;99.90
19734;DHT22;10018;51.230;7.860;2022-09-13T07:51:17;17.40;99.90
19734;DHT22;10018;51.230;7.860;2022-09-13T07:53:44;17.40;99.90
19734;DHT22;10018;51.230;7.860;2022-09-13T07:56:12;17.40;99.90
19734;DHT22;10018;51.230;7.860;2022-09-13T07:58:39;17.40;99.90
19734;DHT22;10018;51.230;7.860;2022-09-13T08:01:16;17.50;99.90
19734;DHT22;10018;51.230;7.860;2022-09-13T08:03:43;17.40;99.90
19734;DHT22;10018;51.230;7.860;2022-09-13T08:06:09;17.50;99.90
19734;DHT22;10018;51.230;7.860;2022-09-13T08:08:36;17.60;99.90
19734;DHT22;10018;51.230;7.860;2022-09-13T08:11:03;17.60;99.90
19734;DHT22;10018;51.230;7.860;2022-09-13T08:13:29;17.60;99.90
19734;DHT22;10018;51.230;7.860;2022-09-13T08:16:00;17.70;99.90
19734;DHT22;10018;51.230;7.860;2022-09-13T08:18:26;17.80;99.90
19734;DHT22;10018;51.230;7.860;2022-09-13T08:20:55;17.90;99.90
19734;DHT22;10018;51.230;7.860;2022-09-13T08:23:21;17.90;99.90
19734;DHT22;10018;51.230;7.860;2022-09-13T08:25:47;18.00;99.90
19734;DHT22;10018;51.230;7.860;2022-09-13T08:28:17;18.00;99.90
19734;DHT22;10018;51.230;7.860;2022-09-13T08:30:43;18.10;99.90
19734;DHT22;10018;51.230;7.860;2022-09-13T08:33:10;18.20;99.90
19734;DHT22;10018;51.230;7.860;2022-09-13T08:35:36;18.30;99.90
19734;DHT22;10018;51.230;7.860;2022-09-13T08:38:03;18.40;99.90
19734;DHT22;10018;51.230;7.860;2022-09-13T08:40:55;18.50;99.90
19734;DHT22;10018;51.230;7.860;2022-09-13T08:43:46;18.50;99.90
19734;DHT22;10018;51.230;7.860;2022-09-13T08:46:26;18.50;99.90
19734;DHT22;10018;51.230;7.860;2022-09-13T08:48:59;18.60;99.90
19734;DHT22;10018;51.230;7.860;2022-09-13T08:51:36;18.70;99.90
19734;DHT22;10018;51.230;7.860;2022-09-13T08:54:07;18.70;99.90
19734;DHT22;10018;51.230;7.860;2022-09-13T08:56:49;18.70;99.90
19734;DHT22;10018;51.230;7.860;2022-09-13T08:59:21;18.80;99.90
19734;DHT22;10018;51.230;7.860;2022-09-13T09:05:03;19.10;99.90
19734;DHT22;10018;51.230;7.860;2022-09-13T09:07:33;19.20;99.90
19734;DHT22;10018;51.230;7.860;2022-09-13T09:15:46;19.70;99.90
19734;DHT22;10018;51.230;7.860;2022-09-13T09:18:26;19.80;99.90
19734;DHT22;10018;51.230;7.860;2022-09-13T09:20:55;19.90;99.90
19734;DHT22;10018;51.230;7.860;2022-09-13T09:23:49;20.00;99.90
19734;DHT22;10018;51.230;7.860;2022-09-13T09:26:24;20.10;99.90
19734;DHT22;10018;51.230;7.860;2022-09-13T09:29:22;20.20;99.90
19734;DHT22;10018;51.230;7.860;2022-09-13T09:32:36;20.40;99.90
19734;DHT22;10018;51.230;7.860;2022-09-13T09:38:26;20.60;99.90
19734;DHT22;10018;51.230;7.860;2022-09-13T09:41:02;20.70;99.90
19734;DHT22;10018;51.230;7.860;2022-09-13T09:43:47;20.80;99.90
19734;DHT22;10018;51.230;7.860;2022-09-13T09:46:15;20.80;99.90
19734;DHT22;10018;51.230;7.860;2022-09-13T09:48:49;20.80;99.90
19734;DHT22;10018;51.230;7.860;2022-09-13T09:51:18;20.90;99.90
19734;DHT22;10018;51.230;7.860;2022-09-13T09:53:47;21.00;99.90
19734;DHT22;10018;51.230;7.860;2022-09-13T09:56:26;21.20;99.90
19734;DHT22;10018;51.230;7.860;2022-09-13T09:58:53;21.40;99.90
19734;DHT22;10018;51.230;7.860;2022-09-13T10:01:26;21.60;99.90
19734;DHT22;10018;51.230;7.860;2022-09-13T10:06:38;21.90;99.90
19734;DHT22;10018;51.230;7.860;2022-09-13T10:09:14;22.10;99.90
19734;DHT22;10018;51.230;7.860;2022-09-13T10:11:52;22.20;99.90
19734;DHT22;10018;51.230;7.860;2022-09-13T10:14:30;22.20;99.90
19734;DHT22;10018;51.230;7.860;2022-09-13T10:22:37;22.50;99.90
19734;DHT22;10018;51.230;7.860;2022-09-13T10:25:23;22.60;99.90
19734;DHT22;10018;51.230;7.860;2022-09-13T10:27:55;22.70;99.90
19734;DHT22;10018;51.230;7.860;2022-09-13T10:30:40;22.70;99.90
19734;DHT22;10018;51.230;7.860;2022-09-13T10:33:40;22.80;99.90
19734;DHT22;10018;51.230;7.860;2022-09-13T10:36:17;23.00;99.90
19734;DHT22;10018;51.230;7.860;2022-09-13T10:38:58;23.10;99.90
19734;DHT22;10018;51.230;7.860;2022-09-13T10:41:31;23.20;99.90
19734;DHT22;10018;51.230;7.860;2022-09-13T10:43:58;23.40;99.90
19734;DHT22;10018;51.230;7.860;2022-09-13T10:46:24;23.50;99.90
19734;DHT22;10018;51.230;7.860;2022-09-13T10:48:51;23.50;99.90
19734;DHT22;10018;51.230;7.860;2022-09-13T10:54:14;23.60;99.90
19734;DHT22;10018;51.230;7.860;2022-09-13T10:56:41;23.60;99.90
19734;DHT22;10018;51.230;7.860;2022-09-13T11:02:21;23.50;99.90
19734;DHT22;10018;51.230;7.860;2022-09-13T11:05:07;23.50;99.90
19734;DHT22;10018;51.230;7.860;2022-09-13T11:07:59;23.50;99.90
19734;DHT22;10018;51.230;7.860;2022-09-13T11:10:42;23.50;99.90
19734;DHT22;10018;51.230;7.860;2022-09-13T11:13:34;23.70;99.90
19734;DHT22;10018;51.230;7.860;2022-09-13T11:16:33;23.90;99.90
19734;DHT22;10018;51.230;7.860;2022-09-13T11:19:29;24.20;99.90
19734;DHT22;10018;51.230;7.860;2022-09-13T11:25:37;24.40;99.90
19734;DHT22;10018;51.230;7.860;2022-09-13T11:31:33;24.60;99.90
19734;DHT22;10018;51.230;7.860;2022-09-13T11:39:38;24.80;99.90
19734;DHT22;10018;51.230;7.860;2022-09-13T11:42:16;25.00;99.90
19734;DHT22;10018;51.230;7.860;2022-09-13T11:45:07;25.10;99.90
19734;DHT22;10018;51.230;7.860;2022-09-13T11:55:45;25.50;99.90
19734;DHT22;10018;51.230;7.860;2022-09-13T11:58:17;25.60;99.90
19734;DHT22;10018;51.230;7.860;2022-09-13T12:00:47;25.80;99.90
19734;DHT22;10018;51.230;7.860;2022-09-13T12:06:26;25.70;99.90
19734;DHT22;10018;51.230;7.860;2022-09-13T12:08:58;25.60;99.90
19734;DHT22;10018;51.230;7.860;2022-09-13T12:11:33;25.60;99.90
19734;DHT22;10018;51.230;7.860;2022-09-13T12:14:02;25.60;99.90
19734;DHT22;10018;51.230;7.860;2022-09-13T12:16:34;25.60;99.90
19734;DHT22;10018;51.230;7.860;2022-09-13T12:19:06;25.70;99.90
19734;DHT22;10018;51.230;7.860;2022-09-13T12:21:38;25.70;99.90
19734;DHT22;10018;51.230;7.860;2022-09-13T12:29:33;26.00;99.90
19734;DHT22;10018;51.230;7.860;2022-09-13T12:32:06;26.20;99.90
19734;DHT22;10018;51.230;7.860;2022-09-13T12:40:28;26.20;99.90
19734;DHT22;10018;51.230;7.860;2022-09-13T12:43:10;26.30;99.90
19734;DHT22;10018;51.230;7.860;2022-09-13T12:52:25;26.40;99.90
19734;DHT22;10018;51.230;7.860;2022-09-13T12:58:02;26.60;99.90
19734;DHT22;10018;51.230;7.860;2022-09-13T13:00:57;26.40;99.90
19734;DHT22;10018;51.230;7.860;2022-09-13T13:03:30;26.40;99.90
19734;DHT22;10018;51.230;7.860;2022-09-13T13:08:33;26.40;99.90
19734;DHT22;10018;51.230;7.860;2022-09-13T13:11:10;26.40;99.90
19734;DHT22;10018;51.230;7.860;2022-09-13T13:13:43;26.50;99.90
19734;DHT22;10018;51.230;7.860;2022-09-13T13:16:29;26.60;99.90
19734;DHT22;10018;51.230;7.860;2022-09-13T13:18:57;26.70;99.90
19734;DHT22;10018;51.230;7.860;2022-09-13T13:21:34;26.80;99.90
19734;DHT22;10018;51.230;7.860;2022-09-13T13:26:56;26.90;99.90
19734;DHT22;10018;51.230;7.860;2022-09-13T13:29:30;27.00;99.90
19734;DHT22;10018;51.230;7.860;2022-09-13T13:34:43;26.90;99.90
19734;DHT22;10018;51.230;7.860;2022-09-13T13:39:40;26.70;99.90
19734;DHT22;10018;51.230;7.860;2022-09-13T13:42:27;26.80;99.90
19734;DHT22;10018;51.230;7.860;2022-09-13T13:49:50;26.90;99.90
19734;DHT22;10018;51.230;7.860;2022-09-13T13:59:56;26.80;99.90
19734;DHT22;10018;51.230;7.860;2022-09-13T14:02:29;26.80;99.90
19734;DHT22;10018;51.230;7.860;2022-09-13T14:10:33;26.90;99.90
19734;DHT22;10018;51.230;7.860;2022-09-13T14:15:58;28.30;99.90
19734;DHT22;10018;51.230;7.860;2022-09-13T14:18:50;29.00;99.90
19734;DHT22;10018;51.230;7.860;2022-09-13T14:21:22;30.30;99.90
19734;DHT22;10018;51.230;7.860;2022-09-13T14:23:49;30.50;99.90
19734;DHT22;10018;51.230;7.860;2022-09-13T14:26:14;30.40;99.90
19734;DHT22;10018;51.230;7.860;2022-09-13T14:28:40;30.50;99.90
19734;DHT22;10018;51.230;7.860;2022-09-13T14:31:06;30.70;99.90
19734;DHT22;10018;51.230;7.860;2022-09-13T14:33:36;30.60;99.90
19734;DHT22;10018;51.230;7.860;2022-09-13T14:36:12;30.20;99.90
19734;DHT22;10018;51.230;7.860;2022-09-13T14:38:53;29.90;99.90
19734;DHT22;10018;51.230;7.860;2022-09-13T14:41:28;30.10;99.90
19734;DHT22;10018;51.230;7.860;2022-09-13T14:43:53;30.30;99.90
19734;DHT22;10018;51.230;7.860;2022-09-13T14:46:40;30.60;99.90
19734;DHT22;10018;51.230;7.860;2022-09-13T14:49:09;30.40;99.90
19734;DHT22;10018;51.230;7.860;2022-09-13T14:51:45;29.70;99.90
19734;DHT22;10018;51.230;7.860;2022-09-13T14:54:27;29.40;99.90
19734;DHT22;10018;51.230;7.860;2022-09-13T14:56:57;29.30;99.90
19734;DHT22;10018;51.230;7.860;2022-09-13T14:59:33;29.20;99.90
19734;DHT22;10018;51.230;7.860;2022-09-13T15:04:49;28.50;99.90
19734;DHT22;10018;51.230;7.860;2022-09-13T15:07:35;28.30;99.90
19734;DHT22;10018;51.230;7.860;2022-09-13T15:10:27;28.40;99.90
19734;DHT22;10018;51.230;7.860;2022-09-13T15:13:07;28.20;99.90
19734;DHT22;10018;51.230;7.860;2022-09-13T15:15:36;27.80;99.90
19734;DHT22;10018;51.230;7.860;2022-09-13T15:20:53;28.80;99.90
19734;DHT22;10018;51.230;7.860;2022-09-13T15:28:31;28.50;99.90
19734;DHT22;10018;51.230;7.860;2022-09-13T15:30:59;28.10;99.90
19734;DHT22;10018;51.230;7.860;2022-09-13T15:33:30;28.00;99.90
19734;DHT22;10018;51.230;7.860;2022-09-13T15:36:35;27.50;99.90
19734;DHT22;10018;51.230;7.860;2022-09-13T15:39:09;26.90;99.90
19734;DHT22;10018;51.230;7.860;2022-09-13T15:41:39;26.50;99.90
19734;DHT22;10018;51.230;7.860;2022-09-13T15:44:07;26.20;99.90
19734;DHT22;10018;51.230;7.860;2022-09-13T15:46:54;26.00;99.90
19734;DHT22;10018;51.230;7.860;2022-09-13T15:49:22;26.00;99.90
19734;DHT22;10018;51.230;7.860;2022-09-13T15:51:57;26.30;99.90
19734;DHT22;10018;51.230;7.860;2022-09-13T15:54:26;26.50;99.90
19734;DHT22;10018;51.230;7.860;2022-09-13T15:56:55;26.50;99.90
19734;DHT22;10018;51.230;7.860;2022-09-13T15:59:20;26.40;99.90
19734;DHT22;10018;51.230;7.860;2022-09-13T16:01:47;26.00;99.90
19734;DHT22;10018;51.230;7.860;2022-09-13T16:04:14;25.70;99.90
19734;DHT22;10018;51.230;7.860;2022-09-13T16:06:40;25.50;99.90
19734;DHT22;10018;51.230;7.860;2022-09-13T16:09:19;25.20;99.90
19734;DHT22;10018;51.230;7.860;2022-09-13T16:11:46;25.00;99.90
19734;DHT22;10018;51.230;7.860;2022-09-13T16:14:13;24.90;99.90
19734;DHT22;10018;51.230;7.860;2022-09-13T16:16:38;24.80;99.90
19734;DHT22;10018;51.230;7.860;2022-09-13T16:19:04;24.60;99.90
19734;DHT22;10018;51.230;7.860;2022-09-13T16:21:29;24.60;99.90
19734;DHT22;10018;51.230;7.860;2022-09-13T16:23:56;24.60;99.90
19734;DHT22;10018;51.230;7.860;2022-09-13T16:26:21;24.50;99.90
19734;DHT22;10018;51.230;7.860;2022-09-13T16:28:47;24.30;99.90
19734;DHT22;10018;51.230;7.860;2022-09-13T16:31:13;24.20;99.90
19734;DHT22;10018;51.230;7.860;2022-09-13T16:33:40;24.10;99.90
19734;DHT22;10018;51.230;7.860;2022-09-13T16:36:07;24.10;99.90
19734;DHT22;10018;51.230;7.860;2022-09-13T16:38:34;24.00;99.90
19734;DHT22;10018;51.230;7.860;2022-09-13T16:41:00;24.00;99.90
19734;DHT22;10018;51.230;7.860;2022-09-13T16:43:28;23.90;99.90
19734;DHT22;10018;51.230;7.860;2022-09-13T16:45:53;23.80;99.90
19734;DHT22;10018;51.230;7.860;2022-09-13T16:48:19;23.70;99.90
19734;DHT22;10018;51.230;7.860;2022-09-13T16:50:44;23.50;99.90
19734;DHT22;10018;51.230;7.860;2022-09-13T16:53:10;23.40;99.90
19734;DHT22;10018;51.230;7.860;2022-09-13T16:55:35;23.40;99.90
19734;DHT22;10018;51.230;7.860;2022-09-13T16:58:01;23.30;99.90
19734;DHT22;10018;51.230;7.860;2022-09-13T17:00:26;23.20;99.90
19734;DHT22;10018;51.230;7.860;2022-09-13T17:02:54;23.10;99.90
19734;DHT22;10018;51.230;7.860;2022-09-13T17:05:20;23.00;99.90
19734;DHT22;10018;51.230;7.860;2022-09-13T17:07:46;22.90;99.90
19734;DHT22;10018;51.230;7.860;2022-09-13T17:10:12;22.90;99.90
19734;DHT22;10018;51.230;7.860;2022-09-13T17:12:38;22.80;99.90
19734;DHT22;10018;51.230;7.860;2022-09-13T17:15:04;22.80;99.90
19734;DHT22;10018;51.230;7.860;2022-09-13T17:17:30;22.70;99.90
19734;DHT22;10018;51.230;7.860;2022-09-13T17:20:04;22.70;99.90
19734;DHT22;10018;51.230;7.860;2022-09-13T17:22:30;22.70;99.90
19734;DHT22;10018;51.230;7.860;2022-09-13T17:24:56;22.60;99.90
19734;DHT22;10018;51.230;7.860;2022-09-13T17:27:22;22.50;99.90
19734;DHT22;10018;51.230;7.860;2022-09-13T17:29:47;22.50;99.90
19734;DHT22;10018;51.230;7.860;2022-09-13T17:32:13;22.30;99.90
19734;DHT22;10018;51.230;7.860;2022-09-13T17:34:38;22.20;99.90
19734;DHT22;10018;51.230;7.860;2022-09-13T17:37:03;22.10;99.90
19734;DHT22;10018;51.230;7.860;2022-09-13T17:39:30;22.10;99.90
19734;DHT22;10018;51.230;7.860;2022-09-13T17:41:56;22.00;99.90
19734;DHT22;10018;51.230;7.860;2022-09-13T17:44:22;22.00;99.90
19734;DHT22;10018;51.230;7.860;2022-09-13T17:46:47;21.90;99.90
19734;DHT22;10018;51.230;7.860;2022-09-13T17:49:13;21.80;99.90
19734;DHT22;10018;51.230;7.860;2022-09-13T17:51:39;21.70;99.90
19734;DHT22;10018;51.230;7.860;2022-09-13T17:54:06;21.70;99.90
19734;DHT22;10018;51.230;7.860;2022-09-13T17:56:36;21.70;99.90
19734;DHT22;10018;51.230;7.860;2022-09-13T17:59:16;21.60;99.90
19734;DHT22;10018;51.230;7.860;2022-09-13T18:01:44;21.70;99.90
19734;DHT22;10018;51.230;7.860;2022-09-13T18:04:11;21.60;99.90
19734;DHT22;10018;51.230;7.860;2022-09-13T18:06:37;21.60;99.90
19734;DHT22;10018;51.230;7.860;2022-09-13T18:09:05;21.60;99.90
19734;DHT22;10018;51.230;7.860;2022-09-13T18:11:31;21.70;99.90
19734;DHT22;10018;51.230;7.860;2022-09-13T18:13:57;21.70;99.90
19734;DHT22;10018;51.230;7.860;2022-09-13T18:16:24;21.70;99.90
19734;DHT22;10018;51.230;7.860;2022-09-13T18:18:50;21.80;99.90
19734;DHT22;10018;51.230;7.860;2022-09-13T18:21:18;21.80;99.90
19734;DHT22;10018;51.230;7.860;2022-09-13T18:23:45;21.80;99.90
19734;DHT22;10018;51.230;7.860;2022-09-13T18:26:13;21.80;99.90
19734;DHT22;10018;51.230;7.860;2022-09-13T18:28:39;21.80;99.90
19734;DHT22;10018;51.230;7.860;2022-09-13T18:31:06;21.70;99.90
19734;DHT22;10018;51.230;7.860;2022-09-13T18:33:33;21.60;99.90
19734;DHT22;10018;51.230;7.860;2022-09-13T18:36:00;21.50;99.90